createdAt,value
2023-03-21T00:00:15.541Z,25.00
2023-03-21T00:20:14.319Z,28.80
2023-03-21T00:40:26.777Z,39.20
2023-03-21T01:00:13.759Z,26.20
2023-03-21T01:20:14.469Z,25.50
2023-03-21T01:40:13.223Z,24.20
2023-03-21T02:00:12.995Z,19.60
2023-03-21T02:20:12.658Z,27.20
2023-03-21T02:40:12.394Z,26.90
2023-03-21T03:00:16.649Z,30.70
2023-03-21T03:20:16.465Z,29.90
2023-03-21T03:40:11.616Z,39.40
2023-03-21T04:00:11.360Z,29.90
2023-03-21T04:20:18.468Z,35.40
2023-03-21T04:40:10.860Z,36.50
2023-03-21T05:14:44.895Z,31.50
2023-03-21T05:34:44.618Z,41.20
2023-03-21T05:54:44.386Z,39.10
2023-03-21T06:14:44.155Z,36.10
2023-03-21T06:34:43.828Z,43.70
2023-03-21T06:54:43.555Z,57.70
2023-03-21T07:14:43.293Z,45.60
2023-03-21T07:34:43.009Z,38.30
2023-03-21T07:54:42.732Z,39.40
2023-03-21T08:14:42.478Z,43.60
2023-03-21T08:34:42.161Z,32.60
2023-03-21T08:54:41.894Z,32.70
2023-03-21T09:14:41.623Z,28.40
2023-03-21T09:34:41.458Z,29.30
2023-03-21T09:54:41.042Z,33.30
2023-03-21T10:14:40.758Z,27.30
2023-03-21T10:34:40.480Z,17.90
2023-03-21T10:54:40.214Z,18.50
2023-03-21T11:14:39.939Z,15.30
2023-03-21T11:34:39.668Z,10.60
2023-03-21T11:54:39.434Z,17.10
2023-03-21T12:14:39.137Z,8.90
2023-03-21T12:34:38.862Z,12.50
2023-03-21T12:54:38.607Z,14.00
2023-03-21T13:14:38.330Z,14.40
2023-03-21T13:34:38.079Z,15.50
2023-03-21T13:54:37.884Z,20.30
2023-03-21T14:14:38.527Z,17.90
2023-03-21T14:34:37.242Z,27.50
2023-03-21T14:54:36.983Z,20.50
2023-03-21T15:14:36.722Z,19.70
2023-03-21T15:34:36.436Z,17.70
2023-03-21T15:54:36.184Z,14.10
2023-03-21T16:14:35.940Z,20.60
2023-03-21T16:34:35.665Z,17.70
2023-03-21T16:54:35.421Z,19.10
2023-03-21T17:14:35.083Z,23.90
2023-03-21T17:34:34.823Z,23.60
2023-03-21T17:54:34.567Z,21.30
2023-03-21T18:14:34.887Z,20.10
2023-03-21T18:34:33.977Z,19.90
2023-03-21T18:54:33.941Z,20.20
2023-03-21T19:14:33.494Z,18.70
2023-03-21T19:34:33.108Z,16.40
2023-03-21T19:54:32.846Z,16.70
2023-03-21T20:14:32.523Z,13.70
2023-03-21T20:34:32.268Z,15.50
2023-03-21T20:54:32.066Z,12.10
2023-03-21T21:14:31.706Z,13.60
2023-03-21T21:34:31.403Z,17.80
2023-03-21T21:54:31.151Z,13.50
2023-03-21T22:14:30.903Z,16.20
2023-03-21T22:34:30.614Z,22.60
2023-03-21T22:54:30.348Z,23.00
2023-03-21T23:14:30.079Z,16.30
2023-03-21T23:34:29.824Z,18.70
2023-03-21T23:54:29.580Z,14.80
